Terminal Aerodrome Forecast
Issued by NWS

Home | Current Version | Previous Version | Text Only | Print | Product List | Glossary On
Versions: 1 2 3 4 5 6 7 8 9 10 11 12 13 14 15 16 17 18 19 20 21 22 23
000
FTUS43 KDVN 211000 AAB
TAFBRL
TAF AMD
KBRL 211007Z 2110/2206 18007KT 5SM -DZ BR OVC025
     FM211300 18009KT 5SM BR OVC015
     FM211500 18011KT 6SM BR OVC009
     FM211800 18012G19KT P6SM OVC015=

USA.gov is the U.S. government's official web portal to all federal, state and local government web resources and services.